sensor_id;sensor_type;location;lat;lon;timestamp;pressure;altitude;pressure_sealevel;temperature;humidity
5777;BME280;2914;42.668;23.346;2023-05-21T00:00:10;94393.86;;;16.88;98.12
5777;BME280;2914;42.668;23.346;2023-05-21T00:02:40;94389.86;;;16.88;98.37
5777;BME280;2914;42.668;23.346;2023-05-21T00:05:09;94388.19;;;16.91;98.49
5777;BME280;2914;42.668;23.346;2023-05-21T00:07:40;94390.43;;;16.83;98.53
5777;BME280;2914;42.668;23.346;2023-05-21T00:10:11;94383.05;;;16.89;98.27
5777;BME280;2914;42.668;23.346;2023-05-21T00:12:40;94380.19;;;16.91;98.18
5777;BME280;2914;42.668;23.346;2023-05-21T00:15:10;94380.66;;;16.94;98.16
5777;BME280;2914;42.668;23.346;2023-05-21T00:17:39;94372.34;;;16.93;97.94
5777;BME280;2914;42.668;23.346;2023-05-21T00:20:11;94371.01;;;16.93;97.79
5777;BME280;2914;42.668;23.346;2023-05-21T00:25:47;94368.19;;;17.06;97.29
5777;BME280;2914;42.668;23.346;2023-05-21T00:28:17;94368.62;;;16.99;97.42
5777;BME280;2914;42.668;23.346;2023-05-21T00:30:46;94363.16;;;16.96;97.20
5777;BME280;2914;42.668;23.346;2023-05-21T00:33:15;94363.97;;;16.96;97.44
5777;BME280;2914;42.668;23.346;2023-05-21T00:35:44;94362.15;;;16.97;97.18
5777;BME280;2914;42.668;23.346;2023-05-21T00:38:13;94362.34;;;16.95;97.12
5777;BME280;2914;42.668;23.346;2023-05-21T00:40:44;94362.15;;;16.97;96.89
5777;BME280;2914;42.668;23.346;2023-05-21T00:43:13;94358.48;;;16.98;96.75
5777;BME280;2914;42.668;23.346;2023-05-21T00:45:42;94353.16;;;16.98;97.03
5777;BME280;2914;42.668;23.346;2023-05-21T00:48:13;94357.14;;;16.98;96.89
5777;BME280;2914;42.668;23.346;2023-05-21T00:50:42;94357.38;;;16.88;96.51
5777;BME280;2914;42.668;23.346;2023-05-21T00:53:11;94361.61;;;16.83;96.40
5777;BME280;2914;42.668;23.346;2023-05-21T00:55:42;94362.19;;;16.78;96.82
5777;BME280;2914;42.668;23.346;2023-05-21T00:58:11;94363.14;;;16.66;98.35
5777;BME280;2914;42.668;23.346;2023-05-21T01:00:40;94362.23;;;16.59;99.14
5777;BME280;2914;42.668;23.346;2023-05-21T01:03:09;94358.33;;;16.51;99.54
5777;BME280;2914;42.668;23.346;2023-05-21T01:05:40;94359.09;;;16.55;99.63
5777;BME280;2914;42.668;23.346;2023-05-21T01:08:11;94355.58;;;16.59;99.57
5777;BME280;2914;42.668;23.346;2023-05-21T01:10:41;94356.72;;;16.60;99.82
5777;BME280;2914;42.668;23.346;2023-05-21T01:13:11;94355.72;;;16.61;100.00
5777;BME280;2914;42.668;23.346;2023-05-21T01:15:41;94357.00;;;16.51;100.00
5777;BME280;2914;42.668;23.346;2023-05-21T01:18:11;94354.52;;;16.49;100.00
5777;BME280;2914;42.668;23.346;2023-05-21T01:20:42;94350.67;;;16.52;100.00
5777;BME280;2914;42.668;23.346;2023-05-21T01:23:13;94345.81;;;16.40;100.00
5777;BME280;2914;42.668;23.346;2023-05-21T01:25:43;94347.72;;;16.47;100.00
5777;BME280;2914;42.668;23.346;2023-05-21T01:28:13;94349.77;;;16.44;100.00
5777;BME280;2914;42.668;23.346;2023-05-21T01:30:43;94340.69;;;16.35;100.00
5777;BME280;2914;42.668;23.346;2023-05-21T01:36:06;94337.84;;;16.51;100.00
5777;BME280;2914;42.668;23.346;2023-05-21T01:38:39;94342.96;;;16.42;100.00
5777;BME280;2914;42.668;23.346;2023-05-21T01:41:10;94336.94;;;16.44;100.00
5777;BME280;2914;42.668;23.346;2023-05-21T01:43:43;94335.93;;;16.45;100.00
5777;BME280;2914;42.668;23.346;2023-05-21T01:46:15;94331.94;;;16.45;100.00
5777;BME280;2914;42.668;23.346;2023-05-21T01:48:44;94335.02;;;16.38;100.00
5777;BME280;2914;42.668;23.346;2023-05-21T01:51:14;94338.97;;;16.42;100.00
5777;BME280;2914;42.668;23.346;2023-05-21T01:53:44;94347.34;;;16.35;100.00
5777;BME280;2914;42.668;23.346;2023-05-21T01:56:14;94342.67;;;16.37;100.00
5777;BME280;2914;42.668;23.346;2023-05-21T01:58:43;94335.73;;;16.32;100.00
5777;BME280;2914;42.668;23.346;2023-05-21T02:01:12;94339.20;;;16.36;100.00
5777;BME280;2914;42.668;23.346;2023-05-21T02:03:41;94336.30;;;16.27;100.00
5777;BME280;2914;42.668;23.346;2023-05-21T02:06:10;94331.89;;;16.34;100.00
5777;BME280;2914;42.668;23.346;2023-05-21T02:08:39;94330.23;;;16.33;100.00
5777;BME280;2914;42.668;23.346;2023-05-21T02:11:08;94328.59;;;16.32;100.00
5777;BME280;2914;42.668;23.346;2023-05-21T02:13:37;94328.89;;;16.33;100.00
5777;BME280;2914;42.668;23.346;2023-05-21T02:16:08;94326.73;;;16.18;100.00
5777;BME280;2914;42.668;23.346;2023-05-21T02:18:38;94323.13;;;16.30;100.00
5777;BME280;2914;42.668;23.346;2023-05-21T02:21:08;94324.09;;;16.33;100.00
5777;BME280;2914;42.668;23.346;2023-05-21T02:23:38;94329.93;;;16.32;100.00
5777;BME280;2914;42.668;23.346;2023-05-21T02:26:08;94322.24;;;16.33;100.00
5777;BME280;2914;42.668;23.346;2023-05-21T02:28:38;94326.61;;;16.30;100.00
5777;BME280;2914;42.668;23.346;2023-05-21T02:31:07;94319.28;;;16.32;100.00
5777;BME280;2914;42.668;23.346;2023-05-21T02:33:38;94322.57;;;16.34;99.55
5777;BME280;2914;42.668;23.346;2023-05-21T02:36:08;94316.48;;;16.30;99.56
5777;BME280;2914;42.668;23.346;2023-05-21T02:38:40;94317.30;;;16.30;99.54
5777;BME280;2914;42.668;23.346;2023-05-21T02:41:10;94317.75;;;16.19;99.81
5777;BME280;2914;42.668;23.346;2023-05-21T02:43:39;94321.13;;;16.13;100.00
5777;BME280;2914;42.668;23.346;2023-05-21T02:46:08;94314.25;;;16.18;99.62
5777;BME280;2914;42.668;23.346;2023-05-21T02:48:37;94317.90;;;16.21;99.55
5777;BME280;2914;42.668;23.346;2023-05-21T02:51:06;94307.69;;;16.25;99.73
5777;BME280;2914;42.668;23.346;2023-05-21T02:53:35;94312.72;;;16.24;99.45
5777;BME280;2914;42.668;23.346;2023-05-21T02:56:05;94315.48;;;16.26;99.14
5777;BME280;2914;42.668;23.346;2023-05-21T02:58:34;94311.06;;;16.23;98.81
5777;BME280;2914;42.668;23.346;2023-05-21T03:01:03;94311.06;;;16.23;98.72
5777;BME280;2914;42.668;23.346;2023-05-21T03:03:32;94308.25;;;16.20;99.00
5777;BME280;2914;42.668;23.346;2023-05-21T03:06:02;94312.88;;;16.22;98.83
5777;BME280;2914;42.668;23.346;2023-05-21T03:08:31;94309.73;;;16.23;98.85
5777;BME280;2914;42.668;23.346;2023-05-21T03:11:00;94318.67;;;16.26;98.64
5777;BME280;2914;42.668;23.346;2023-05-21T03:13:29;94317.67;;;16.27;98.28
5777;BME280;2914;42.668;23.346;2023-05-21T03:15:58;94320.72;;;16.35;98.05
5777;BME280;2914;42.668;23.346;2023-05-21T03:18:27;94315.59;;;16.33;98.08
5777;BME280;2914;42.668;23.346;2023-05-21T03:20:56;94320.09;;;16.33;98.07
5777;BME280;2914;42.668;23.346;2023-05-21T03:23:25;94319.86;;;16.23;98.60
5777;BME280;2914;42.668;23.346;2023-05-21T03:25:54;94324.61;;;16.32;97.75
5777;BME280;2914;42.668;23.346;2023-05-21T03:28:23;94320.23;;;16.35;97.44
5777;BME280;2914;42.668;23.346;2023-05-21T03:30:52;94315.25;;;16.36;97.96
5777;BME280;2914;42.668;23.346;2023-05-21T03:33:22;94330.74;;;16.33;97.66
5777;BME280;2914;42.668;23.346;2023-05-21T03:35:50;94326.05;;;16.35;97.32
5777;BME280;2914;42.668;23.346;2023-05-21T03:38:21;94326.56;;;16.34;97.49
5777;BME280;2914;42.668;23.346;2023-05-21T03:40:50;94325.75;;;16.34;97.59
5777;BME280;2914;42.668;23.346;2023-05-21T03:43:19;94324.32;;;16.27;98.12
5777;BME280;2914;42.668;23.346;2023-05-21T03:45:48;94324.69;;;16.24;98.48
5777;BME280;2914;42.668;23.346;2023-05-21T03:48:17;94327.39;;;16.20;98.70
5777;BME280;2914;42.668;23.346;2023-05-21T03:50:46;94321.00;;;16.25;98.36
5777;BME280;2914;42.668;23.346;2023-05-21T03:53:15;94322.70;;;16.22;98.72
5777;BME280;2914;42.668;23.346;2023-05-21T03:55:44;94327.66;;;16.25;98.69
5777;BME280;2914;42.668;23.346;2023-05-21T03:58:13;94332.30;;;16.27;98.92
5777;BME280;2914;42.668;23.346;2023-05-21T04:00:42;94312.67;;;16.28;98.61
5777;BME280;2914;42.668;23.346;2023-05-21T04:03:12;94327.73;;;16.17;98.39
5777;BME280;2914;42.668;23.346;2023-05-21T04:05:41;94320.98;;;15.95;100.00
5777;BME280;2914;42.668;23.346;2023-05-21T04:08:11;94320.80;;;15.97;100.00
5777;BME280;2914;42.668;23.346;2023-05-21T04:10:40;94316.63;;;15.98;100.00
5777;BME280;2914;42.668;23.346;2023-05-21T04:13:09;94320.29;;;15.97;100.00
5777;BME280;2914;42.668;23.346;2023-05-21T04:15:38;94325.16;;;16.08;100.00
5777;BME280;2914;42.668;23.346;2023-05-21T04:18:07;94320.87;;;16.07;100.00
5777;BME280;2914;42.668;23.346;2023-05-21T04:20:37;94315.98;;;16.11;100.00
5777;BME280;2914;42.668;23.346;2023-05-21T04:23:06;94308.52;;;16.10;100.00
5777;BME280;2914;42.668;23.346;2023-05-21T04:25:36;94331.85;;;16.04;100.00
5777;BME280;2914;42.668;23.346;2023-05-21T04:28:05;94334.66;;;16.07;100.00
5777;BME280;2914;42.668;23.346;2023-05-21T04:30:35;94322.83;;;16.09;100.00
5777;BME280;2914;42.668;23.346;2023-05-21T04:33:04;94315.03;;;16.08;100.00
5777;BME280;2914;42.668;23.346;2023-05-21T04:35:33;94313.99;;;16.13;100.00
5777;BME280;2914;42.668;23.346;2023-05-21T04:38:02;94321.27;;;16.15;100.00
5777;BME280;2914;42.668;23.346;2023-05-21T04:40:32;94324.82;;;16.11;100.00
5777;BME280;2914;42.668;23.346;2023-05-21T04:43:01;94312.29;;;16.16;100.00
5777;BME280;2914;42.668;23.346;2023-05-21T04:45:31;94329.40;;;16.18;100.00
5777;BME280;2914;42.668;23.346;2023-05-21T04:48:00;94325.51;;;16.24;100.00
5777;BME280;2914;42.668;23.346;2023-05-21T04:50:29;94325.13;;;16.27;100.00
5777;BME280;2914;42.668;23.346;2023-05-21T04:52:58;94321.47;;;16.28;100.00
5777;BME280;2914;42.668;23.346;2023-05-21T04:55:27;94328.08;;;16.33;100.00
5777;BME280;2914;42.668;23.346;2023-05-21T04:57:56;94322.34;;;16.40;100.00
5777;BME280;2914;42.668;23.346;2023-05-21T05:00:25;94325.23;;;16.49;99.95
5777;BME280;2914;42.668;23.346;2023-05-21T05:02:54;94320.68;;;16.54;99.12
5777;BME280;2914;42.668;23.346;2023-05-21T05:05:24;94325.28;;;16.60;98.76
5777;BME280;2914;42.668;23.346;2023-05-21T05:07:53;94327.98;;;16.71;98.26
5777;BME280;2914;42.668;23.346;2023-05-21T05:10:22;94325.52;;;16.69;97.46
5777;BME280;2914;42.668;23.346;2023-05-21T05:12:51;94320.08;;;16.77;97.28
5777;BME280;2914;42.668;23.346;2023-05-21T05:15:20;94319.98;;;16.86;95.99
5777;BME280;2914;42.668;23.346;2023-05-21T05:17:49;94321.31;;;16.86;95.00
5777;BME280;2914;42.668;23.346;2023-05-21T05:20:18;94332.59;;;16.88;94.80
5777;BME280;2914;42.668;23.346;2023-05-21T05:22:47;94333.90;;;16.92;93.78
5777;BME280;2914;42.668;23.346;2023-05-21T05:25:17;94322.52;;;16.98;93.62
5777;BME280;2914;42.668;23.346;2023-05-21T05:27:46;94328.00;;;16.96;94.87
5777;BME280;2914;42.668;23.346;2023-05-21T05:32:23;94330.45;;;17.02;95.18
5777;BME280;2914;42.668;23.346;2023-05-21T05:34:52;94329.69;;;17.08;92.96
5777;BME280;2914;42.668;23.346;2023-05-21T05:37:21;94325.58;;;17.17;91.56
5777;BME280;2914;42.668;23.346;2023-05-21T05:39:50;94331.92;;;17.26;90.63
5777;BME280;2914;42.668;23.346;2023-05-21T05:42:19;94328.77;;;17.27;90.18
5777;BME280;2914;42.668;23.346;2023-05-21T05:44:48;94325.14;;;17.35;90.57
5777;BME280;2914;42.668;23.346;2023-05-21T05:47:18;94321.60;;;17.38;91.38
5777;BME280;2914;42.668;23.346;2023-05-21T05:49:48;94322.11;;;17.27;90.01
5777;BME280;2914;42.668;23.346;2023-05-21T05:52:17;94327.86;;;17.20;90.56
5777;BME280;2914;42.668;23.346;2023-05-21T05:54:46;94324.00;;;17.33;90.64
5777;BME280;2914;42.668;23.346;2023-05-21T05:57:15;94318.28;;;17.25;91.15
5777;BME280;2914;42.668;23.346;2023-05-21T05:59:44;94320.89;;;17.40;91.31
5777;BME280;2914;42.668;23.346;2023-05-21T06:04:53;94323.62;;;17.36;88.09
5777;BME280;2914;42.668;23.346;2023-05-21T06:07:22;94326.69;;;17.44;88.77
5777;BME280;2914;42.668;23.346;2023-05-21T06:09:51;94316.64;;;17.68;88.11
5777;BME280;2914;42.668;23.346;2023-05-21T06:12:20;94319.95;;;17.70;81.24
5777;BME280;2914;42.668;23.346;2023-05-21T06:14:49;94317.33;;;17.98;82.48
5777;BME280;2914;42.668;23.346;2023-05-21T06:17:18;94323.53;;;18.34;82.35
5777;BME280;2914;42.668;23.346;2023-05-21T06:19:47;94320.75;;;18.66;79.46
5777;BME280;2914;42.668;23.346;2023-05-21T06:22:17;94320.99;;;18.78;78.47
5777;BME280;2914;42.668;23.346;2023-05-21T06:24:46;94321.97;;;19.05;76.54
5777;BME280;2914;42.668;23.346;2023-05-21T06:27:15;94312.23;;;19.15;72.24
5777;BME280;2914;42.668;23.346;2023-05-21T06:29:44;94310.30;;;19.20;73.93
5777;BME280;2914;42.668;23.346;2023-05-21T06:32:13;94313.12;;;19.29;72.61
5777;BME280;2914;42.668;23.346;2023-05-21T06:34:42;94307.27;;;19.36;72.57
5777;BME280;2914;42.668;23.346;2023-05-21T06:37:11;94312.50;;;19.33;71.30
5777;BME280;2914;42.668;23.346;2023-05-21T06:39:40;94305.45;;;19.19;70.60
5777;BME280;2914;42.668;23.346;2023-05-21T06:42:09;94312.66;;;19.19;71.04
5777;BME280;2914;42.668;23.346;2023-05-21T06:44:38;94303.72;;;19.15;71.21
5777;BME280;2914;42.668;23.346;2023-05-21T06:47:07;94304.30;;;19.11;71.95
5777;BME280;2914;42.668;23.346;2023-05-21T06:49:36;94300.52;;;19.16;71.68
5777;BME280;2914;42.668;23.346;2023-05-21T06:52:06;94301.02;;;19.09;72.14
5777;BME280;2914;42.668;23.346;2023-05-21T06:54:35;94298.86;;;19.15;72.05
5777;BME280;2914;42.668;23.346;2023-05-21T06:57:05;94302.05;;;19.14;69.64
5777;BME280;2914;42.668;23.346;2023-05-21T06:59:34;94300.86;;;19.24;70.40
5777;BME280;2914;42.668;23.346;2023-05-21T07:02:03;94297.36;;;19.30;70.67
5777;BME280;2914;42.668;23.346;2023-05-21T07:04:32;94292.97;;;19.33;70.75
5777;BME280;2914;42.668;23.346;2023-05-21T07:07:02;94290.50;;;19.45;71.00
5777;BME280;2914;42.668;23.346;2023-05-21T07:09:31;94291.33;;;19.52;71.06
5777;BME280;2914;42.668;23.346;2023-05-21T07:12:00;94290.85;;;19.66;69.99
5777;BME280;2914;42.668;23.346;2023-05-21T07:14:30;94286.11;;;19.75;68.96
5777;BME280;2914;42.668;23.346;2023-05-21T07:16:58;94288.90;;;19.77;69.38
5777;BME280;2914;42.668;23.346;2023-05-21T07:19:28;94288.30;;;19.89;67.85
5777;BME280;2914;42.668;23.346;2023-05-21T07:21:57;94285.20;;;20.12;68.03
5777;BME280;2914;42.668;23.346;2023-05-21T07:24:26;94293.45;;;19.97;66.14
5777;BME280;2914;42.668;23.346;2023-05-21T07:26:55;94293.50;;;19.73;64.16
5777;BME280;2914;42.668;23.346;2023-05-21T07:29:24;94298.20;;;19.44;65.47
5777;BME280;2914;42.668;23.346;2023-05-21T07:31:53;94300.50;;;19.47;65.50
5777;BME280;2914;42.668;23.346;2023-05-21T07:34:22;94294.33;;;19.60;66.88
5777;BME280;2914;42.668;23.346;2023-05-21T07:36:51;94304.02;;;19.61;65.84
5777;BME280;2914;42.668;23.346;2023-05-21T07:39:20;94301.34;;;19.61;65.52
5777;BME280;2914;42.668;23.346;2023-05-21T07:41:49;94298.41;;;19.42;65.67
5777;BME280;2914;42.668;23.346;2023-05-21T07:44:18;94298.83;;;19.39;66.05
5777;BME280;2914;42.668;23.346;2023-05-21T07:46:47;94294.11;;;19.55;66.34
5777;BME280;2914;42.668;23.346;2023-05-21T07:49:16;94290.63;;;19.61;66.25
5777;BME280;2914;42.668;23.346;2023-05-21T07:51:45;94283.86;;;19.72;66.19
5777;BME280;2914;42.668;23.346;2023-05-21T07:54:15;94293.45;;;19.90;63.70
5777;BME280;2914;42.668;23.346;2023-05-21T07:56:44;94298.09;;;19.99;63.70
5777;BME280;2914;42.668;23.346;2023-05-21T07:59:15;94303.20;;;20.21;62.54
5777;BME280;2914;42.668;23.346;2023-05-21T08:01:44;94303.20;;;20.34;62.17
5777;BME280;2914;42.668;23.346;2023-05-21T08:04:13;94292.77;;;20.48;59.78
5777;BME280;2914;42.668;23.346;2023-05-21T08:06:42;94289.58;;;20.42;55.97
5777;BME280;2914;42.668;23.346;2023-05-21T08:09:11;94303.52;;;20.28;56.58
5777;BME280;2914;42.668;23.346;2023-05-21T08:11:40;94310.22;;;20.22;53.27
5777;BME280;2914;42.668;23.346;2023-05-21T08:14:09;94292.74;;;19.92;50.84
5777;BME280;2914;42.668;23.346;2023-05-21T08:16:38;94297.05;;;20.07;52.09
5777;BME280;2914;42.668;23.346;2023-05-21T08:19:07;94293.66;;;20.09;52.03
5777;BME280;2914;42.668;23.346;2023-05-21T08:21:36;94285.84;;;20.07;52.03
5777;BME280;2914;42.668;23.346;2023-05-21T08:24:07;94314.02;;;20.16;52.59
5777;BME280;2914;42.668;23.346;2023-05-21T08:26:36;94283.22;;;20.23;50.99
5777;BME280;2914;42.668;23.346;2023-05-21T08:29:05;94289.38;;;20.30;49.87
5777;BME280;2914;42.668;23.346;2023-05-21T08:31:34;94302.18;;;20.22;49.07
5777;BME280;2914;42.668;23.346;2023-05-21T08:34:03;94285.84;;;20.07;49.11
5777;BME280;2914;42.668;23.346;2023-05-21T08:36:32;94290.35;;;20.00;48.36
5777;BME280;2914;42.668;23.346;2023-05-21T08:39:01;94291.58;;;19.97;49.14
5777;BME280;2914;42.668;23.346;2023-05-21T08:41:31;94309.56;;;19.73;48.27
5777;BME280;2914;42.668;23.346;2023-05-21T08:44:02;94290.45;;;19.76;49.51
5777;BME280;2914;42.668;23.346;2023-05-21T08:46:32;94285.73;;;19.85;49.45
5777;BME280;2914;42.668;23.346;2023-05-21T08:49:02;94304.58;;;19.94;49.29
5777;BME280;2914;42.668;23.346;2023-05-21T08:51:31;94283.34;;;20.12;50.44
5777;BME280;2914;42.668;23.346;2023-05-21T08:54:01;94291.80;;;20.16;48.30
5777;BME280;2914;42.668;23.346;2023-05-21T08:56:32;94285.58;;;20.29;49.40
5777;BME280;2914;42.668;23.346;2023-05-21T08:59:02;94280.84;;;20.38;49.22
5777;BME280;2914;42.668;23.346;2023-05-21T09:01:32;94289.00;;;20.27;48.58
5777;BME280;2914;42.668;23.346;2023-05-21T09:04:03;94297.04;;;20.13;50.03
5777;BME280;2914;42.668;23.346;2023-05-21T09:06:32;94289.01;;;20.13;50.37
5777;BME280;2914;42.668;23.346;2023-05-21T09:12:06;94296.23;;;19.93;51.87
5777;BME280;2914;42.668;23.346;2023-05-21T09:14:35;94300.30;;;19.69;52.86
5777;BME280;2914;42.668;23.346;2023-05-21T09:17:05;94292.37;;;19.71;53.49
5777;BME280;2914;42.668;23.346;2023-05-21T09:19:34;94292.48;;;19.67;50.60
5777;BME280;2914;42.668;23.346;2023-05-21T09:22:04;94284.56;;;19.76;50.14
5777;BME280;2914;42.668;23.346;2023-05-21T09:24:33;94291.09;;;19.91;49.34
5777;BME280;2914;42.668;23.346;2023-05-21T09:27:05;94285.42;;;20.04;49.56
5777;BME280;2914;42.668;23.346;2023-05-21T09:29:34;94298.91;;;20.20;50.16
5777;BME280;2914;42.668;23.346;2023-05-21T09:32:07;94282.91;;;20.29;50.88
5777;BME280;2914;42.668;23.346;2023-05-21T09:34:38;94301.38;;;20.21;48.91
5777;BME280;2914;42.668;23.346;2023-05-21T09:37:07;94285.58;;;20.29;48.59
5777;BME280;2914;42.668;23.346;2023-05-21T09:39:39;94282.69;;;20.30;48.12
5777;BME280;2914;42.668;23.346;2023-05-21T09:42:08;94293.73;;;20.18;45.84
5777;BME280;2914;42.668;23.346;2023-05-21T09:44:37;94295.06;;;20.25;46.53
5777;BME280;2914;42.668;23.346;2023-05-21T09:47:08;94284.35;;;20.25;45.93
5777;BME280;2914;42.668;23.346;2023-05-21T09:49:37;94286.70;;;20.37;46.28
5777;BME280;2914;42.668;23.346;2023-05-21T09:52:08;94280.64;;;20.32;46.04
5777;BME280;2914;42.668;23.346;2023-05-21T09:54:37;94265.06;;;20.39;46.12
5777;BME280;2914;42.668;23.346;2023-05-21T09:57:07;94278.05;;;20.42;46.27
5777;BME280;2914;42.668;23.346;2023-05-21T09:59:36;94270.02;;;20.42;47.14
5777;BME280;2914;42.668;23.346;2023-05-21T10:02:16;94267.48;;;20.60;47.05
5777;BME280;2914;42.668;23.346;2023-05-21T10:04:48;94265.60;;;20.74;45.41
5777;BME280;2914;42.668;23.346;2023-05-21T10:07:19;94257.63;;;20.83;44.48
5777;BME280;2914;42.668;23.346;2023-05-21T10:09:50;94257.06;;;20.75;45.16
5777;BME280;2914;42.668;23.346;2023-05-21T10:12:23;94264.67;;;20.78;44.54
5777;BME280;2914;42.668;23.346;2023-05-21T10:14:56;94263.55;;;20.76;44.50
5777;BME280;2914;42.668;23.346;2023-05-21T10:17:25;94256.48;;;20.89;45.24
5777;BME280;2914;42.668;23.346;2023-05-21T10:19:56;94258.23;;;21.08;44.32
5777;BME280;2914;42.668;23.346;2023-05-21T10:22:27;94252.66;;;20.94;44.27
5777;BME280;2914;42.668;23.346;2023-05-21T10:24:57;94255.40;;;20.96;44.44
5777;BME280;2914;42.668;23.346;2023-05-21T10:27:29;94250.63;;;21.05;44.47
5777;BME280;2914;42.668;23.346;2023-05-21T10:29:59;94247.52;;;21.08;44.70
5777;BME280;2914;42.668;23.346;2023-05-21T10:32:30;94251.78;;;21.23;43.80
5777;BME280;2914;42.668;23.346;2023-05-21T10:35:00;94249.94;;;21.16;43.65
5777;BME280;2914;42.668;23.346;2023-05-21T10:37:29;94246.80;;;21.10;44.43
5777;BME280;2914;42.668;23.346;2023-05-21T10:39:58;94243.30;;;21.03;44.10
5777;BME280;2914;42.668;23.346;2023-05-21T10:42:43;94240.59;;;20.94;44.79
5777;BME280;2914;42.668;23.346;2023-05-21T10:45:15;94241.43;;;21.10;44.57
5777;BME280;2914;42.668;23.346;2023-05-21T10:47:58;94243.42;;;21.22;44.55
5777;BME280;2914;42.668;23.346;2023-05-21T10:56:17;94240.97;;;20.97;45.65
5777;BME280;2914;42.668;23.346;2023-05-21T10:59:09;94237.08;;;20.64;46.12
5777;BME280;2914;42.668;23.346;2023-05-21T11:01:40;94237.64;;;20.50;46.91
5777;BME280;2914;42.668;23.346;2023-05-21T11:04:09;94243.70;;;20.55;46.90
5777;BME280;2914;42.668;23.346;2023-05-21T11:09:29;94238.81;;;20.31;47.89
5777;BME280;2914;42.668;23.346;2023-05-21T11:11:59;94237.58;;;20.34;48.11
5777;BME280;2914;42.668;23.346;2023-05-21T11:14:32;94238.00;;;20.31;48.13
5777;BME280;2914;42.668;23.346;2023-05-21T11:17:11;94233.08;;;20.28;48.28
5777;BME280;2914;42.668;23.346;2023-05-21T11:19:41;94226.55;;;20.33;48.42
5777;BME280;2914;42.668;23.346;2023-05-21T11:22:22;94229.64;;;20.37;48.06
5777;BME280;2914;42.668;23.346;2023-05-21T11:24:52;94221.85;;;20.51;47.42
5777;BME280;2914;42.668;23.346;2023-05-21T11:30:18;94216.28;;;20.89;47.49
5777;BME280;2914;42.668;23.346;2023-05-21T11:33:18;94212.16;;;20.86;46.91
5777;BME280;2914;42.668;23.346;2023-05-21T11:35:58;94217.74;;;20.84;46.81
5777;BME280;2914;42.668;23.346;2023-05-21T11:38:29;94216.55;;;20.74;46.38
5777;BME280;2914;42.668;23.346;2023-05-21T11:41:03;94213.91;;;20.54;46.50
5777;BME280;2914;42.668;23.346;2023-05-21T11:43:32;94208.20;;;20.43;46.89
5777;BME280;2914;42.668;23.346;2023-05-21T11:46:01;94214.88;;;20.50;46.94
5777;BME280;2914;42.668;23.346;2023-05-21T11:48:31;94213.44;;;20.47;47.47
5777;BME280;2914;42.668;23.346;2023-05-21T11:51:00;94215.45;;;20.59;47.99
5777;BME280;2914;42.668;23.346;2023-05-21T11:53:30;94211.95;;;20.58;47.54
5777;BME280;2914;42.668;23.346;2023-05-21T11:56:01;94213.41;;;20.54;47.51
5777;BME280;2914;42.668;23.346;2023-05-21T11:58:31;94196.22;;;20.53;47.72
5777;BME280;2914;42.668;23.346;2023-05-21T12:01:00;94199.75;;;20.40;47.26
5777;BME280;2914;42.668;23.346;2023-05-21T12:03:33;94203.22;;;20.47;47.36
5777;BME280;2914;42.668;23.346;2023-05-21T12:06:05;94201.97;;;20.27;48.02
5777;BME280;2914;42.668;23.346;2023-05-21T12:08:34;94207.80;;;20.33;48.37
5777;BME280;2914;42.668;23.346;2023-05-21T12:11:05;94199.72;;;20.24;48.70
5777;BME280;2914;42.668;23.346;2023-05-21T12:13:34;94199.50;;;20.25;49.29
5777;BME280;2914;42.668;23.346;2023-05-21T12:16:04;94197.32;;;20.25;49.79
5777;BME280;2914;42.668;23.346;2023-05-21T12:18:33;94194.88;;;20.16;50.59
5777;BME280;2914;42.668;23.346;2023-05-21T12:21:04;94190.94;;;20.26;51.47
5777;BME280;2914;42.668;23.346;2023-05-21T12:23:34;94195.87;;;20.29;52.21
5777;BME280;2914;42.668;23.346;2023-05-21T12:26:04;94200.31;;;20.26;53.27
5777;BME280;2914;42.668;23.346;2023-05-21T12:28:33;94200.66;;;20.13;53.33
5777;BME280;2914;42.668;23.346;2023-05-21T12:31:02;94207.67;;;20.08;54.06
5777;BME280;2914;42.668;23.346;2023-05-21T12:33:34;94197.89;;;20.04;54.98
5777;BME280;2914;42.668;23.346;2023-05-21T12:36:04;94194.19;;;20.05;55.39
5777;BME280;2914;42.668;23.346;2023-05-21T12:38:33;94182.56;;;20.02;55.21
5777;BME280;2914;42.668;23.346;2023-05-21T12:41:04;94181.33;;;20.05;54.94
5777;BME280;2914;42.668;23.346;2023-05-21T12:43:34;94178.02;;;20.03;54.05
5777;BME280;2914;42.668;23.346;2023-05-21T12:46:03;94186.48;;;19.99;53.89
5777;BME280;2914;42.668;23.346;2023-05-21T12:48:32;94179.69;;;19.97;54.14
5777;BME280;2914;42.668;23.346;2023-05-21T12:51:01;94174.13;;;19.92;54.06
5777;BME280;2914;42.668;23.346;2023-05-21T12:53:37;94179.27;;;19.93;54.76
5777;BME280;2914;42.668;23.346;2023-05-21T12:56:10;94176.47;;;20.04;54.40
5777;BME280;2914;42.668;23.346;2023-05-21T12:58:39;94174.01;;;20.03;53.40
5777;BME280;2914;42.668;23.346;2023-05-21T13:01:09;94176.59;;;20.00;53.47
5777;BME280;2914;42.668;23.346;2023-05-21T13:03:39;94178.13;;;20.05;53.56
5777;BME280;2914;42.668;23.346;2023-05-21T13:06:09;94187.38;;;20.09;53.45
5777;BME280;2914;42.668;23.346;2023-05-21T13:08:38;94173.88;;;20.13;53.42
5777;BME280;2914;42.668;23.346;2023-05-21T13:11:07;94178.09;;;20.19;53.41
5777;BME280;2914;42.668;23.346;2023-05-21T13:13:36;94170.39;;;20.13;53.18
5777;BME280;2914;42.668;23.346;2023-05-21T13:16:06;94172.61;;;20.29;53.67
5777;BME280;2914;42.668;23.346;2023-05-21T13:18:35;94171.07;;;20.24;53.86
5777;BME280;2914;42.668;23.346;2023-05-21T13:21:05;94175.50;;;20.28;53.69
5777;BME280;2914;42.668;23.346;2023-05-21T13:23:34;94167.37;;;20.25;52.97
5777;BME280;2914;42.668;23.346;2023-05-21T13:26:03;94164.16;;;20.26;53.05
5777;BME280;2914;42.668;23.346;2023-05-21T13:28:32;94170.41;;;20.36;52.75
5777;BME280;2914;42.668;23.346;2023-05-21T13:31:01;94164.34;;;20.38;51.79
5777;BME280;2914;42.668;23.346;2023-05-21T13:33:31;94163.56;;;20.46;51.62
5777;BME280;2914;42.668;23.346;2023-05-21T13:36:00;94163.75;;;20.51;51.69
5777;BME280;2914;42.668;23.346;2023-05-21T13:38:29;94158.66;;;20.59;51.90
5777;BME280;2914;42.668;23.346;2023-05-21T13:40:58;94164.42;;;20.63;51.79
5777;BME280;2914;42.668;23.346;2023-05-21T13:43:27;94162.27;;;20.62;53.06
5777;BME280;2914;42.668;23.346;2023-05-21T13:45:57;94171.92;;;20.63;53.76
5777;BME280;2914;42.668;23.346;2023-05-21T13:48:26;94166.66;;;20.66;54.62